Watrous, Pennsylvania
Current Conditions -  °F | °C
As of 2:55 AM on Thursday 23 Oct 2014 (Local Time) from KN38 Reporting Station
Overcast Overcast  
Wind Chill: 37°   Ceiling: 1600
Heat Index: 45°   Visibility: 10mi
Dew Point: 39°   Wind: 18mph
Humidity: 81%   Direction: 20°NNE
Pressure: 30.01"   Gusts: NA
Location:  41.6649°N, 77.5403°W
Report Text: KN38 230655Z AUTO 02016KT 10SM OVC016 07/04 A3001 RMK AO2
Loading
Personal Weather Stations






























Interactive Weather Map
Tropical Storm Tracking
New forecast layout! Learn more

10-Day Weather Forecast

Advertisements
Track Severe Weather on mobile